createdAt,value
2022-11-15T00:01:42.404Z,20.05
2022-11-15T00:04:23.864Z,19.23
2022-11-15T00:07:05.460Z,17.45
2022-11-15T00:09:49.353Z,19.92
2022-11-15T00:12:30.330Z,18.93
2022-11-15T00:15:11.379Z,19.08
2022-11-15T00:17:52.618Z,18.92
2022-11-15T00:20:36.229Z,20.08
2022-11-15T00:23:17.587Z,19.63
2022-11-15T00:25:59.425Z,18.90
2022-11-15T00:28:41.451Z,19.27
2022-11-15T00:31:22.376Z,18.58
2022-11-15T00:34:03.257Z,19.13
2022-11-15T00:36:44.199Z,18.10
2022-11-15T00:39:25.271Z,18.13
2022-11-15T00:42:06.239Z,17.73
2022-11-15T00:44:47.259Z,17.30
2022-11-15T00:47:28.531Z,17.83
2022-11-15T00:50:14.840Z,18.58
2022-11-15T00:52:56.761Z,18.17
2022-11-15T00:55:38.119Z,17.95
2022-11-15T00:58:19.133Z,19.13
2022-11-15T01:01:08.379Z,19.20
2022-11-15T01:03:49.609Z,19.40
2022-11-15T01:06:31.099Z,19.17
2022-11-15T01:09:12.452Z,19.83
2022-11-15T01:11:53.568Z,19.67
2022-11-15T01:14:34.598Z,20.58
2022-11-15T01:17:15.419Z,19.92
2022-11-15T01:19:58.722Z,19.80
2022-11-15T01:22:39.653Z,19.05
2022-11-15T01:25:20.566Z,19.70
2022-11-15T01:28:01.852Z,19.20
2022-11-15T01:30:43.254Z,18.67
2022-11-15T01:33:24.695Z,19.03
2022-11-15T01:36:12.693Z,18.08
2022-11-15T01:38:56.274Z,19.73
2022-11-15T01:41:37.179Z,18.40
2022-11-15T01:44:44.273Z,19.40
2022-11-15T01:47:53.588Z,19.03
2022-11-15T01:50:34.762Z,19.60
2022-11-15T01:53:16.372Z,21.33
2022-11-15T01:55:57.834Z,20.27
2022-11-15T01:58:40.779Z,18.70
2022-11-15T02:01:22.939Z,21.17
2022-11-15T02:04:10.140Z,22.10
2022-11-15T02:06:51.451Z,20.88
2022-11-15T02:09:37.607Z,21.73
2022-11-15T02:12:22.281Z,21.08
2022-11-15T02:15:05.072Z,21.57
2022-11-15T02:17:51.525Z,20.35
2022-11-15T02:20:38.337Z,20.10
2022-11-15T02:23:57.063Z,21.58
2022-11-15T02:26:56.018Z,21.13
2022-11-15T02:30:05.037Z,21.97
2022-11-15T02:33:01.921Z,21.80
2022-11-15T02:36:02.650Z,22.52
2022-11-15T02:38:59.579Z,22.00
2022-11-15T02:42:00.243Z,22.33
2022-11-15T02:44:46.159Z,21.33
2022-11-15T02:47:31.208Z,21.50
2022-11-15T02:50:17.062Z,22.17
2022-11-15T02:52:58.874Z,21.05
2022-11-15T02:55:45.959Z,21.35
2022-11-15T02:58:35.907Z,22.17
2022-11-15T03:01:31.485Z,20.52
2022-11-15T03:04:30.957Z,20.05
2022-11-15T03:07:17.109Z,22.70
2022-11-15T03:10:21.201Z,20.52
2022-11-15T03:13:26.725Z,19.87
2022-11-15T03:16:12.055Z,20.58
2022-11-15T03:18:58.649Z,20.90
2022-11-15T03:21:41.688Z,20.20
2022-11-15T03:24:26.389Z,20.38
2022-11-15T03:27:10.751Z,20.17
2022-11-15T03:30:12.259Z,18.83
2022-11-15T03:32:57.550Z,20.17
2022-11-15T03:35:41.961Z,19.17
2022-11-15T03:38:26.396Z,17.50
2022-11-15T03:41:16.874Z,16.97
2022-11-15T03:44:26.994Z,17.00
2022-11-15T03:47:13.515Z,15.77
2022-11-15T03:50:02.212Z,17.10
2022-11-15T03:52:46.389Z,16.27
2022-11-15T03:55:27.874Z,15.90
2022-11-15T03:58:09.210Z,15.73
2022-11-15T04:00:50.683Z,16.25
2022-11-15T04:03:32.301Z,15.95
2022-11-15T04:06:13.685Z,16.13
2022-11-15T04:08:54.753Z,14.33
2022-11-15T04:11:35.872Z,14.93
2022-11-15T04:14:16.994Z,14.68
2022-11-15T04:16:58.445Z,15.43
2022-11-15T04:19:57.909Z,15.18
2022-11-15T04:22:58.045Z,15.20
2022-11-15T04:25:39.739Z,14.98
2022-11-15T04:28:20.975Z,15.88
2022-11-15T04:31:01.884Z,15.38
2022-11-15T04:33:42.696Z,15.73
2022-11-15T04:36:42.564Z,15.10
2022-11-15T04:39:23.726Z,14.65
2022-11-15T04:42:04.741Z,14.18
2022-11-15T04:44:46.259Z,14.95
2022-11-15T04:47:28.782Z,14.02
2022-11-15T04:50:15.392Z,13.70
2022-11-15T04:52:56.118Z,14.13
2022-11-15T04:55:37.280Z,14.80
2022-11-15T04:58:18.417Z,14.60
2022-11-15T05:01:07.113Z,14.35
2022-11-15T05:04:21.439Z,14.67
2022-11-15T05:07:05.173Z,14.27
2022-11-15T05:09:46.514Z,15.23
2022-11-15T05:12:27.494Z,14.70
2022-11-15T05:15:10.119Z,15.18
2022-11-15T05:17:51.436Z,15.83
2022-11-15T05:20:33.280Z,15.60
2022-11-15T05:23:14.498Z,15.40
2022-11-15T05:26:02.903Z,15.07
2022-11-15T05:28:48.002Z,14.13
2022-11-15T05:31:29.465Z,15.70
2022-11-15T05:34:11.427Z,15.32
2022-11-15T05:36:52.778Z,15.05
2022-11-15T05:39:34.205Z,14.30
2022-11-15T05:42:16.933Z,14.40
2022-11-15T05:44:59.670Z,14.10
2022-11-15T05:47:41.942Z,13.77
2022-11-15T05:50:24.063Z,14.43
2022-11-15T05:53:07.152Z,15.02
2022-11-15T05:55:48.879Z,13.88
2022-11-15T05:58:32.805Z,14.23
2022-11-15T06:01:14.161Z,14.55
2022-11-15T06:03:55.475Z,14.75
2022-11-15T06:06:36.647Z,15.07
2022-11-15T06:09:17.718Z,14.88
2022-11-15T06:11:59.251Z,15.20
2022-11-15T06:14:40.696Z,15.55
2022-11-15T06:17:22.861Z,15.23
2022-11-15T06:20:04.660Z,15.23
2022-11-15T06:22:45.884Z,15.80
2022-11-15T06:25:31.142Z,15.97
2022-11-15T06:28:12.274Z,15.18
2022-11-15T06:30:53.625Z,16.20
2022-11-15T06:33:35.417Z,15.23
2022-11-15T06:36:18.236Z,16.50
2022-11-15T06:38:59.472Z,17.03
2022-11-15T06:41:41.413Z,17.70
2022-11-15T06:44:22.812Z,16.20
2022-11-15T06:47:03.736Z,17.30
2022-11-15T06:49:45.017Z,17.05
2022-11-15T06:52:26.422Z,17.43
2022-11-15T06:55:09.269Z,16.55
2022-11-15T06:57:52.821Z,15.57
2022-11-15T07:00:34.802Z,17.50
2022-11-15T07:03:16.511Z,17.50
2022-11-15T07:06:04.242Z,17.53
2022-11-15T07:08:48.088Z,16.45
2022-11-15T07:11:29.113Z,18.00
2022-11-15T07:14:10.075Z,17.13
2022-11-15T07:16:50.919Z,17.23
2022-11-15T07:19:36.354Z,17.37
2022-11-15T07:22:17.269Z,18.17
2022-11-15T07:24:58.433Z,18.10
2022-11-15T07:27:39.894Z,16.60
2022-11-15T07:30:22.116Z,18.05
2022-11-15T07:33:03.612Z,17.43
2022-11-15T07:35:47.417Z,18.52
2022-11-15T07:38:30.020Z,18.55
2022-11-15T07:41:11.216Z,18.42
2022-11-15T07:43:53.906Z,19.08
2022-11-15T07:46:35.457Z,19.30
2022-11-15T07:49:16.954Z,18.50
2022-11-15T07:51:58.808Z,18.90
2022-11-15T07:54:40.641Z,17.70
2022-11-15T07:57:21.790Z,19.23
2022-11-15T08:00:07.730Z,18.77
2022-11-15T08:02:49.159Z,19.48
2022-11-15T08:05:30.744Z,20.30
2022-11-15T08:08:12.491Z,20.90
2022-11-15T08:10:54.134Z,19.05
2022-11-15T08:13:35.476Z,21.20
2022-11-15T08:16:16.576Z,19.17
2022-11-15T08:18:58.108Z,20.58
2022-11-15T08:21:39.742Z,20.88
2022-11-15T08:24:21.819Z,20.17
2022-11-15T08:27:02.850Z,20.20
2022-11-15T08:29:51.212Z,20.30
2022-11-15T08:32:33.599Z,20.27
2022-11-15T08:35:15.044Z,19.67
2022-11-15T08:37:56.455Z,20.95
2022-11-15T08:40:39.681Z,20.27
2022-11-15T08:43:21.251Z,20.30
2022-11-15T08:46:02.868Z,20.60
2022-11-15T08:48:44.503Z,20.52
2022-11-15T08:51:25.816Z,19.77
2022-11-15T08:54:07.914Z,20.97
2022-11-15T08:56:49.659Z,20.98
2022-11-15T08:59:31.722Z,20.90
2022-11-15T09:02:15.855Z,19.92
2022-11-15T09:04:58.093Z,21.30
2022-11-15T09:07:39.254Z,20.03
2022-11-15T09:10:21.860Z,20.15
2022-11-15T09:13:03.166Z,19.02
2022-11-15T09:15:44.639Z,19.15
2022-11-15T09:18:26.391Z,20.52
2022-11-15T09:21:08.208Z,19.50
2022-11-15T09:23:53.343Z,18.75
2022-11-15T09:26:34.721Z,19.83
2022-11-15T09:29:16.192Z,18.73
2022-11-15T09:31:57.603Z,18.95
2022-11-15T09:34:39.131Z,19.63
2022-11-15T09:37:20.494Z,20.15
2022-11-15T09:40:04.338Z,19.13
2022-11-15T09:43:04.385Z,19.27
2022-11-15T09:45:54.486Z,18.48
2022-11-15T09:48:50.513Z,19.57
2022-11-15T09:51:35.278Z,19.42
2022-11-15T09:56:49.005Z,19.85
2022-11-15T09:59:17.278Z,22.65
2022-11-15T10:01:58.172Z,20.15
2022-11-15T10:04:22.008Z,20.48
2022-11-15T10:06:55.119Z,19.73
2022-11-15T10:09:24.527Z,20.05
2022-11-15T10:11:47.041Z,19.77
2022-11-15T10:14:15.270Z,20.30
2022-11-15T10:17:15.711Z,20.08
2022-11-15T10:20:06.253Z,18.98
2022-11-15T10:22:35.903Z,19.65
2022-11-15T10:25:18.347Z,19.10
2022-11-15T10:27:43.261Z,20.02
2022-11-15T10:30:12.950Z,19.65
2022-11-15T10:32:37.356Z,20.15
2022-11-15T10:35:00.021Z,19.38
2022-11-15T10:37:31.609Z,20.35
2022-11-15T10:40:19.674Z,20.67
2022-11-15T10:42:42.477Z,20.02
2022-11-15T10:45:24.713Z,19.65
2022-11-15T10:47:47.479Z,19.98
2022-11-15T10:50:33.344Z,19.08
2022-11-15T10:52:56.255Z,19.67
2022-11-15T10:55:19.485Z,19.95
2022-11-15T10:57:51.580Z,20.73
2022-11-15T11:00:21.558Z,20.90
2022-11-15T11:02:57.470Z,20.63
2022-11-15T11:05:28.191Z,20.87
2022-11-15T11:08:02.348Z,19.05
2022-11-15T11:13:38.680Z,20.55
2022-11-15T11:16:21.545Z,21.13
2022-11-15T11:19:10.578Z,20.97
2022-11-15T11:22:10.393Z,20.92
2022-11-15T11:24:57.947Z,21.60
2022-11-15T11:27:29.551Z,20.75
2022-11-15T11:30:11.276Z,19.65
2022-11-15T11:32:59.530Z,20.20
2022-11-15T11:35:33.485Z,22.02
2022-11-15T11:38:03.470Z,21.20
2022-11-15T11:40:26.246Z,20.58
2022-11-15T11:42:59.146Z,20.58
2022-11-15T11:45:41.274Z,20.60
2022-11-15T11:48:16.037Z,21.15
2022-11-15T11:50:40.125Z,20.60
2022-11-15T11:53:13.747Z,20.85
2022-11-15T11:55:42.313Z,20.13
2022-11-15T11:58:27.208Z,20.13
2022-11-15T12:00:59.448Z,18.60
2022-11-15T12:03:43.874Z,19.35
2022-11-15T12:06:30.758Z,19.90
2022-11-15T12:09:03.058Z,19.30
2022-11-15T12:11:59.387Z,19.50
2022-11-15T12:15:00.994Z,21.02
2022-11-15T12:17:33.022Z,20.27
2022-11-15T12:20:02.874Z,21.00
2022-11-15T12:22:46.390Z,19.75
2022-11-15T12:25:17.711Z,20.63
2022-11-15T12:27:47.024Z,20.45
2022-11-15T12:30:16.677Z,20.35
2022-11-15T12:32:42.167Z,20.48
2022-11-15T12:35:07.221Z,21.38
2022-11-15T12:37:38.894Z,20.60
2022-11-15T12:40:27.281Z,19.00
2022-11-15T12:43:08.089Z,20.13
2022-11-15T12:45:34.008Z,20.02
2022-11-15T12:48:19.324Z,20.63
2022-11-15T12:50:56.967Z,20.63
2022-11-15T12:53:25.550Z,21.80
2022-11-15T12:56:14.053Z,20.10
2022-11-15T12:59:00.171Z,19.42
2022-11-15T13:01:31.921Z,19.40
2022-11-15T13:04:31.277Z,19.63
2022-11-15T13:07:07.740Z,19.88
2022-11-15T13:09:33.369Z,19.85
2022-11-15T13:11:58.350Z,19.90
2022-11-15T13:14:44.819Z,21.02
2022-11-15T13:17:21.186Z,21.90
2022-11-15T13:19:46.426Z,22.17
2022-11-15T13:22:31.141Z,22.35
2022-11-15T13:24:55.663Z,21.77
2022-11-15T13:27:20.545Z,21.65
2022-11-15T13:29:44.895Z,21.43
2022-11-15T13:32:14.450Z,22.17
2022-11-15T13:34:54.064Z,22.60
2022-11-15T13:37:37.289Z,21.90
2022-11-15T13:40:18.752Z,22.98
2022-11-15T13:42:45.641Z,21.37
2022-11-15T13:45:15.671Z,22.95
2022-11-15T13:47:38.525Z,21.95
2022-11-15T13:50:09.651Z,23.42
2022-11-15T13:52:37.832Z,21.50
2022-11-15T13:55:11.312Z,21.70
2022-11-15T13:57:49.493Z,21.08
2022-11-15T14:00:36.581Z,20.23
2022-11-15T14:03:16.723Z,20.48
2022-11-15T14:05:39.447Z,20.67
2022-11-15T14:08:13.644Z,20.63
2022-11-15T14:10:38.457Z,21.00
2022-11-15T14:13:02.122Z,20.25
2022-11-15T14:15:39.029Z,21.77
2022-11-15T14:18:02.698Z,20.70
2022-11-15T14:20:26.002Z,20.73
2022-11-15T14:23:00.642Z,21.95
2022-11-15T14:25:35.171Z,21.02
2022-11-15T14:28:09.909Z,21.35
2022-11-15T14:30:33.019Z,22.83
2022-11-15T14:32:55.598Z,23.23
2022-11-15T14:35:21.138Z,23.55
2022-11-15T14:37:44.675Z,23.55
2022-11-15T14:40:10.670Z,22.58
2022-11-15T14:42:33.467Z,22.08
2022-11-15T14:44:56.365Z,23.30
2022-11-15T14:47:19.844Z,23.58
2022-11-15T14:49:43.063Z,25.08
2022-11-15T14:52:33.032Z,24.83
2022-11-15T14:54:57.122Z,25.08
2022-11-15T14:57:19.750Z,24.30
2022-11-15T14:59:42.653Z,24.25
2022-11-15T15:02:17.002Z,24.42
2022-11-15T15:04:39.685Z,26.10
2022-11-15T15:07:02.306Z,24.27
2022-11-15T15:09:25.145Z,24.60
2022-11-15T15:11:47.827Z,25.10
2022-11-15T15:14:10.457Z,24.70
2022-11-15T15:16:33.112Z,24.92
2022-11-15T15:18:55.749Z,24.35
2022-11-15T15:21:22.893Z,24.33
2022-11-15T15:23:45.679Z,25.60
2022-11-15T15:26:08.543Z,24.98
2022-11-15T15:28:34.472Z,26.27
2022-11-15T15:30:57.653Z,24.52
2022-11-15T15:33:20.188Z,26.03
2022-11-15T15:35:43.109Z,24.05
2022-11-15T15:38:05.708Z,24.63
2022-11-15T15:40:30.809Z,23.13
2022-11-15T15:42:53.497Z,23.20
2022-11-15T15:45:41.141Z,23.98
2022-11-15T15:48:06.251Z,22.52
2022-11-15T15:50:34.673Z,23.80
2022-11-15T15:52:59.495Z,24.77
2022-11-15T15:55:22.503Z,23.25
2022-11-15T15:57:45.186Z,22.08
2022-11-15T16:00:10.425Z,23.30
2022-11-15T16:02:40.274Z,23.52
2022-11-15T16:05:03.422Z,21.60
2022-11-15T16:07:26.179Z,22.30
2022-11-15T16:10:03.061Z,23.77
2022-11-15T16:12:30.455Z,23.05
2022-11-15T16:14:52.918Z,24.60
2022-11-15T16:17:20.822Z,23.98
2022-11-15T16:19:45.244Z,23.17
2022-11-15T16:22:07.836Z,24.08
2022-11-15T16:24:30.767Z,23.98
2022-11-15T16:26:53.552Z,22.95
2022-11-15T16:29:16.247Z,22.98
2022-11-15T16:31:39.584Z,23.15
2022-11-15T16:34:02.124Z,23.20
2022-11-15T16:36:30.457Z,22.58
2022-11-15T16:38:53.708Z,23.58
2022-11-15T16:41:19.156Z,24.38
2022-11-15T16:43:41.604Z,23.73
2022-11-15T16:46:22.058Z,24.47
2022-11-15T16:48:45.085Z,23.95
2022-11-15T16:51:07.813Z,23.60
2022-11-15T16:53:30.399Z,26.17
2022-11-15T16:55:53.345Z,25.55
2022-11-15T16:58:15.970Z,26.02
2022-11-15T17:00:38.696Z,25.90
2022-11-15T17:03:01.923Z,25.08
2022-11-15T17:05:27.644Z,25.73
2022-11-15T17:07:54.428Z,25.63
2022-11-15T17:10:17.704Z,26.20
2022-11-15T17:12:41.186Z,24.90
2022-11-15T17:15:05.926Z,25.30
2022-11-15T17:17:28.595Z,25.20
2022-11-15T17:19:52.323Z,25.20
2022-11-15T17:22:15.331Z,25.37
2022-11-15T17:24:37.840Z,23.73
2022-11-15T17:27:00.592Z,26.70
2022-11-15T17:29:23.536Z,27.42
2022-11-15T17:31:46.817Z,27.23
2022-11-15T17:34:09.634Z,27.33
2022-11-15T17:36:32.773Z,25.63
2022-11-15T17:38:59.279Z,25.48
2022-11-15T17:41:22.746Z,28.15
2022-11-15T17:43:45.510Z,27.27
2022-11-15T17:46:12.434Z,27.85
2022-11-15T17:48:35.375Z,28.30
2022-11-15T17:51:03.112Z,27.48
2022-11-15T17:53:26.947Z,26.70
2022-11-15T17:55:49.849Z,27.27
2022-11-15T17:58:12.395Z,26.53
2022-11-15T18:00:37.815Z,27.88
2022-11-15T18:03:00.415Z,27.15
2022-11-15T18:05:23.045Z,27.40
2022-11-15T18:07:45.870Z,26.30
2022-11-15T18:10:08.996Z,26.95
2022-11-15T18:12:31.875Z,25.95
2022-11-15T18:14:54.410Z,25.70
2022-11-15T18:17:19.022Z,27.13
2022-11-15T18:19:42.278Z,26.63
2022-11-15T18:22:07.253Z,27.63
2022-11-15T18:24:35.145Z,28.25
2022-11-15T18:26:59.487Z,27.15
2022-11-15T18:29:24.492Z,28.00
2022-11-15T18:31:50.105Z,27.42
2022-11-15T18:34:12.795Z,27.20
2022-11-15T18:36:36.329Z,27.35
2022-11-15T18:39:02.329Z,28.27
2022-11-15T18:41:28.492Z,27.38
2022-11-15T18:43:52.560Z,29.33
2022-11-15T18:46:17.051Z,27.80
2022-11-15T18:48:41.683Z,27.75
2022-11-15T18:51:09.385Z,29.00
2022-11-15T18:53:33.160Z,27.83
2022-11-15T18:56:10.607Z,28.27
2022-11-15T18:58:36.294Z,26.27
2022-11-15T19:01:07.592Z,26.45
2022-11-15T19:03:35.427Z,27.95
2022-11-15T19:06:09.634Z,30.40
2022-11-15T19:08:35.604Z,29.88
2022-11-15T19:11:05.518Z,28.83
2022-11-15T19:13:28.099Z,29.27
2022-11-15T19:15:57.639Z,29.38
2022-11-15T19:18:20.590Z,28.00
2022-11-15T19:20:43.640Z,30.02
2022-11-15T19:23:06.498Z,28.60
2022-11-15T19:25:32.725Z,27.63
2022-11-15T19:27:56.633Z,29.83
2022-11-15T19:30:19.624Z,28.45
2022-11-15T19:32:42.471Z,28.48
2022-11-15T19:35:05.708Z,28.17
2022-11-15T19:37:29.580Z,29.30
2022-11-15T19:39:56.038Z,27.85
2022-11-15T19:42:18.605Z,27.17
2022-11-15T19:44:41.387Z,28.40
2022-11-15T19:47:04.399Z,28.77
2022-11-15T19:49:27.566Z,29.73
2022-11-15T19:51:50.742Z,30.98
2022-11-15T19:54:16.937Z,29.50
2022-11-15T19:56:40.157Z,28.70
2022-11-15T19:59:04.679Z,27.87
2022-11-15T20:01:33.404Z,28.77
2022-11-15T20:03:59.545Z,26.60
2022-11-15T20:06:28.391Z,29.77
2022-11-15T20:08:51.260Z,29.80
2022-11-15T20:11:15.821Z,29.53
2022-11-15T20:13:38.929Z,27.65
2022-11-15T20:16:01.878Z,28.88
2022-11-15T20:18:26.464Z,29.73
2022-11-15T20:20:49.942Z,30.00
2022-11-15T20:23:13.663Z,30.17
2022-11-15T20:25:39.759Z,30.83
2022-11-15T20:28:02.278Z,29.60
2022-11-15T20:30:25.800Z,29.52
2022-11-15T20:32:48.778Z,30.92
2022-11-15T20:35:11.503Z,29.70
2022-11-15T20:37:35.152Z,29.33
2022-11-15T20:39:59.738Z,28.48
2022-11-15T20:42:22.364Z,28.35
2022-11-15T20:44:44.969Z,28.38
2022-11-15T20:47:08.998Z,29.33
2022-11-15T20:49:31.808Z,30.80
2022-11-15T20:51:54.756Z,28.70
2022-11-15T20:54:17.541Z,29.42
2022-11-15T20:56:40.067Z,30.17
2022-11-15T20:59:02.939Z,30.33
2022-11-15T21:01:26.042Z,29.00
2022-11-15T21:03:49.440Z,29.13
2022-11-15T21:06:12.192Z,28.50
2022-11-15T21:08:53.558Z,28.60
2022-11-15T21:11:35.149Z,27.40
2022-11-15T21:13:57.983Z,28.42
2022-11-15T21:16:20.562Z,30.65
2022-11-15T21:18:43.279Z,28.75
2022-11-15T21:21:06.200Z,27.92
2022-11-15T21:23:28.847Z,27.90
2022-11-15T21:25:52.313Z,28.17
2022-11-15T21:28:14.934Z,27.17
2022-11-15T21:30:37.720Z,27.25
2022-11-15T21:33:01.455Z,28.17
2022-11-15T21:35:24.066Z,28.05
2022-11-15T21:37:48.586Z,26.02
2022-11-15T21:40:15.613Z,27.30
2022-11-15T21:42:38.174Z,26.48
2022-11-15T21:45:00.669Z,26.33
2022-11-15T21:47:23.285Z,29.10
2022-11-15T21:49:46.694Z,28.95
2022-11-15T21:52:09.490Z,28.73
2022-11-15T21:54:32.173Z,29.33
2022-11-15T21:57:00.312Z,28.15
2022-11-15T21:59:22.870Z,29.53
2022-11-15T22:02:03.846Z,28.92
2022-11-15T22:04:26.433Z,30.95
2022-11-15T22:06:49.046Z,29.23
2022-11-15T22:09:11.695Z,29.75
2022-11-15T22:11:34.739Z,31.87
2022-11-15T22:13:57.468Z,29.02
2022-11-15T22:16:22.008Z,28.67
2022-11-15T22:18:47.449Z,29.75
2022-11-15T22:21:13.902Z,30.52
2022-11-15T22:23:37.354Z,29.23
2022-11-15T22:26:00.280Z,29.88
2022-11-15T22:28:23.818Z,31.50
2022-11-15T22:30:48.137Z,29.75
2022-11-15T22:33:11.222Z,31.05
2022-11-15T22:35:36.884Z,28.80
2022-11-15T22:37:59.410Z,30.08
2022-11-15T22:40:22.949Z,31.00
2022-11-15T22:42:45.476Z,30.65
2022-11-15T22:45:08.273Z,34.05
2022-11-15T22:47:30.848Z,32.73
2022-11-15T22:49:55.176Z,31.42
2022-11-15T22:52:18.524Z,31.52
2022-11-15T22:54:41.171Z,31.83
2022-11-15T22:57:04.225Z,31.83
2022-11-15T22:59:27.081Z,31.23
2022-11-15T23:01:50.990Z,31.98
2022-11-15T23:04:13.798Z,31.52
2022-11-15T23:06:36.448Z,29.60
2022-11-15T23:08:59.093Z,30.55
2022-11-15T23:11:40.448Z,31.73
2022-11-15T23:14:23.062Z,32.45
2022-11-15T23:17:05.681Z,31.38
2022-11-15T23:19:48.121Z,30.42
2022-11-15T23:22:49.008Z,32.15
2022-11-15T23:25:31.414Z,32.70
2022-11-15T23:27:54.067Z,31.00
2022-11-15T23:30:35.318Z,31.17
2022-11-15T23:33:16.312Z,30.67
2022-11-15T23:35:39.208Z,31.00
2022-11-15T23:38:01.907Z,30.90
2022-11-15T23:40:24.627Z,31.30
2022-11-15T23:42:47.127Z,31.38
2022-11-15T23:45:09.912Z,30.67
2022-11-15T23:47:32.509Z,31.90
2022-11-15T23:49:55.251Z,32.30
2022-11-15T23:52:17.838Z,32.80
2022-11-15T23:54:40.488Z,34.30
2022-11-15T23:57:03.255Z,33.72
2022-11-15T23:59:26.216Z,35.45
